Time;durP1;ratioP1;P1;durP2;ratioP2;P2;SDS_P1;SDS_P2;PMS_P1;PMS_P2;Temp;Humidity;BMP_temperature;BMP_pressure;BME280_temperature;BME280_humidity;BME280_pressure;Samples;Min_cycle;Max_cycle;Signal;HPM_P1;HPM_P2
2022/10/23 00:01:17;;;;;;;11.65;10.30;;;;;;;10.85;100.00;97766.61;1810236;78;21194;-58
2022/10/23 00:03:44;;;;;;;11.63;10.23;;;;;;;10.81;100.00;97769.61;1810150;78;20967;-59
2022/10/23 00:06:12;;;;;;;14.35;11.38;;;;;;;10.77;100.00;97764.61;1809468;79;20915;-58
2022/10/23 00:08:39;;;;;;;12.40;10.82;;;;;;;10.74;100.00;97771.89;1809315;79;20967;-59
2022/10/23 00:11:10;;;;;;;13.20;11.33;;;;;;;10.74;100.00;97774.56;1813220;79;20911;-60
2022/10/23 00:13:37;;;;;;;13.50;11.35;;;;;;;10.73;100.00;97768.97;1811250;78;21103;-59
2022/10/23 00:16:05;;;;;;;14.85;11.75;;;;;;;10.69;100.00;97771.97;1811176;78;21382;-60
2022/10/23 00:18:33;;;;;;;14.10;11.85;;;;;;;10.70;100.00;97766.08;1812239;79;20867;-59
2022/10/23 00:21:00;;;;;;;12.33;11.03;;;;;;;10.69;100.00;97775.22;1812837;79;20931;-59
2022/10/23 00:23:27;;;;;;;14.20;11.85;;;;;;;10.64;100.00;97764.06;1812884;78;20824;-59
2022/10/23 00:25:54;;;;;;;16.35;12.00;;;;;;;10.64;100.00;97769.95;1811163;78;21102;-59
2022/10/23 00:28:21;;;;;;;13.45;10.80;;;;;;;10.63;100.00;97771.03;1811851;78;21429;-59
2022/10/23 00:30:49;;;;;;;13.60;12.18;;;;;;;10.63;100.00;97771.83;1810371;79;20986;-59
2022/10/23 00:33:16;;;;;;;16.55;12.65;;;;;;;10.64;100.00;97770.75;1812715;78;21431;-59
2022/10/23 00:35:44;;;;;;;14.68;12.18;;;;;;;10.66;100.00;97775.27;1811617;79;20884;-59
2022/10/23 00:38:10;;;;;;;18.10;13.08;;;;;;;10.67;100.00;97766.69;1810793;78;21099;-58
2022/10/23 00:40:41;;;;;;;14.28;12.73;;;;;;;10.68;100.00;97768.27;1812671;78;20967;-59
2022/10/23 00:43:20;;;;;;;15.63;13.18;;;;;;;10.67;100.00;97764.02;1812313;78;20899;-59
2022/10/23 00:45:47;;;;;;;14.38;12.43;;;;;;;10.67;100.00;97766.69;1812938;78;20915;-60
2022/10/23 00:48:13;;;;;;;13.32;11.63;;;;;;;10.67;100.00;97772.82;1809967;78;20998;-60
2022/10/23 00:50:40;;;;;;;15.50;13.40;;;;;;;10.67;100.00;97762.11;1810662;78;21142;-60
2022/10/23 00:53:07;;;;;;;27.50;15.38;;;;;;;10.65;100.00;97766.17;1809821;78;20863;-59
2022/10/23 00:55:33;;;;;;;18.65;15.18;;;;;;;10.64;100.00;97765.94;1809815;78;20836;-60
2022/10/23 00:58:00;;;;;;;17.25;14.07;;;;;;;10.62;100.00;97758.17;1811142;78;21026;-59
2022/10/23 01:00:31;;;;;;;15.95;14.25;;;;;;;10.59;100.00;97769.50;1811052;79;20920;-59
2022/10/23 01:02:59;;;;;;;16.97;15.18;;;;;;;10.55;100.00;97772.50;1811314;79;21104;-58
2022/10/23 01:05:32;;;;;;;20.80;15.98;;;;;;;10.54;100.00;97771.47;1808697;79;21686;-58
2022/10/23 01:08:04;;;;;;;20.12;14.70;;;;;;;10.56;100.00;97776.78;1811346;78;20888;-59
2022/10/23 01:10:44;;;;;;;18.25;14.55;;;;;;;10.55;100.00;97775.17;1811771;78;20883;-58
2022/10/23 01:13:38;;;;;;;17.57;15.58;;;;;;;10.54;100.00;97772.80;1813035;79;20974;-58
2022/10/23 01:16:15;;;;;;;18.67;16.15;;;;;;;10.53;100.00;97772.00;1798679;78;21268;-59
2022/10/23 01:18:54;;;;;;;16.65;14.75;;;;;;;10.51;100.00;97775.52;1810604;79;21017;-58
2022/10/23 01:21:30;;;;;;;17.95;14.63;;;;;;;10.53;100.00;97776.02;1806053;79;20864;-58
2022/10/23 01:24:24;;;;;;;;;;;;;;;10.52;100.00;97786.50;1812234;79;20875;-59
2022/10/23 01:27:15;;;;;;;18.48;15.90;;;;;;;10.52;100.00;97783.82;1795384;79;20391;-59
2022/10/23 01:29:48;;;;;;;17.62;15.32;;;;;;;10.51;100.00;97781.42;1810575;79;22035;-59
2022/10/23 01:32:23;;;;;;;16.02;14.35;;;;;;;10.46;100.00;97786.32;1810053;78;20860;-58
2022/10/23 01:34:58;;;;;;;19.40;14.73;;;;;;;10.43;100.00;97784.25;1811221;78;26592;-58
2022/10/23 01:37:42;;;;;;;16.65;14.83;;;;;;;10.43;100.00;97781.58;1810055;78;20896;-58
2022/10/23 01:40:26;;;;;;;16.32;14.63;;;;;;;10.43;100.00;97784.25;1806415;79;20966;-59
2022/10/23 01:42:58;;;;;;;16.77;14.53;;;;;;;10.43;100.00;97782.11;1811535;78;21224;-58
2022/10/23 01:45:33;;;;;;;15.75;13.68;;;;;;;10.44;100.00;97788.50;1812713;78;21023;-58
2022/10/23 01:48:00;;;;;;;15.63;13.13;;;;;;;10.47;100.00;97783.91;1810434;78;20951;-58
2022/10/23 01:50:27;;;;;;;15.72;13.75;;;;;;;10.50;100.00;97790.02;1810754;79;21386;-59
2022/10/23 01:52:55;;;;;;;16.55;14.73;;;;;;;10.51;100.00;97786.23;1811331;79;21339;-60
2022/10/23 01:55:23;;;;;;;14.98;13.03;;;;;;;10.54;100.00;97788.88;1814800;78;21293;-59
2022/10/23 01:57:50;;;;;;;16.40;12.53;;;;;;;10.55;100.00;97792.58;1811590;79;20998;-59
2022/10/23 02:00:18;;;;;;;16.15;12.33;;;;;;;10.55;100.00;97797.94;1812259;78;21088;-59
2022/10/23 02:02:51;;;;;;;13.65;12.18;;;;;;;10.54;100.00;97799.58;1811295;79;20995;-59
2022/10/23 02:05:27;;;;;;;16.57;12.15;;;;;;;10.54;100.00;97804.40;1811573;78;20911;-59
2022/10/23 02:07:54;;;;;;;12.60;11.30;;;;;;;10.57;100.00;97807.84;1810670;78;21637;-59
2022/10/23 02:10:34;;;;;;;15.75;12.63;;;;;;;10.58;100.00;97808.08;1810171;79;20936;-60
2022/10/23 02:13:33;;;;;;;12.58;10.45;;;;;;;10.60;100.00;97813.92;1812071;78;20891;-60
2022/10/23 02:16:31;;;;;;;12.40;10.55;;;;;;;10.61;100.00;97812.85;1785133;78;20994;-58
2022/10/23 02:19:18;;;;;;;11.68;9.95;;;;;;;10.65;100.00;97815.18;1808079;78;20856;-58
2022/10/23 02:21:56;;;;;;;10.10;8.73;;;;;;;10.65;100.00;97820.54;1812696;78;21079;-59
2022/10/23 02:24:30;;;;;;;9.23;7.65;;;;;;;10.62;100.00;97822.45;1811181;79;20963;-59
2022/10/23 02:27:01;;;;;;;8.70;7.60;;;;;;;10.63;100.00;97825.40;1814142;78;20954;-58
2022/10/23 02:29:47;;;;;;;8.95;8.03;;;;;;;10.65;100.00;97830.45;1811188;78;21422;-59
2022/10/23 02:32:14;;;;;;;;;;;;;;;10.65;100.00;97839.28;1813003;78;21427;-59
2022/10/23 02:34:42;;;;;;;9.35;7.35;;;;;;;10.63;100.00;97832.09;1810022;78;21222;-58
2022/10/23 02:37:09;;;;;;;7.53;6.72;;;;;;;10.60;100.00;97843.39;1814171;79;20824;-59
2022/10/23 02:39:38;;;;;;;10.15;7.62;;;;;;;10.60;100.00;97844.72;1811144;79;20906;-59
2022/10/23 02:42:19;;;;;;;9.60;8.10;;;;;;;10.63;100.00;97844.15;1810907;78;21010;-59
2022/10/23 02:45:09;;;;;;;8.65;7.75;;;;;;;10.64;100.00;97843.07;1812083;79;21003;-60
2022/10/23 02:48:00;;;;;;;7.92;6.95;;;;;;;10.64;100.00;97847.09;1808951;79;21598;-58
2022/10/23 02:50:58;;;;;;;8.35;7.53;;;;;;;10.62;100.00;97854.59;1808702;78;20853;-60
2022/10/23 02:53:30;;;;;;;7.70;6.20;;;;;;;10.59;100.00;97859.22;1812374;78;20900;-58
2022/10/23 02:56:14;;;;;;;6.55;5.92;;;;;;;10.61;100.00;97857.05;1812880;79;21556;-57
2022/10/23 02:59:09;;;;;;;4.97;4.47;;;;;;;10.64;100.00;97859.14;1810080;79;20931;-57
2022/10/23 03:02:00;;;;;;;7.20;5.20;;;;;;;10.65;100.00;97866.61;1812490;79;21224;-60
2022/10/23 03:04:26;;;;;;;6.53;5.40;;;;;;;10.63;100.00;97866.91;1809476;79;20864;-57
2022/10/23 03:06:53;;;;;;;6.42;5.10;;;;;;;10.61;100.00;97869.09;1811007;78;20871;-58
2022/10/23 03:09:20;;;;;;;6.28;4.70;;;;;;;10.59;100.00;97875.30;1812770;78;20883;-58
2022/10/23 03:11:49;;;;;;;5.15;4.65;;;;;;;10.59;100.00;97875.30;1804969;78;21109;-57
2022/10/23 03:14:17;;;;;;;6.78;4.33;;;;;;;10.58;100.00;97874.22;1811931;79;21104;-58
2022/10/23 03:16:44;;;;;;;5.00;4.22;;;;;;;10.57;100.00;97877.47;1811494;78;20863;-58
2022/10/23 03:19:11;;;;;;;4.20;3.80;;;;;;;10.56;100.00;97869.17;1810349;79;21430;-58
2022/10/23 03:21:41;;;;;;;3.90;3.50;;;;;;;10.54;100.00;97874.03;1811887;78;21410;-59
2022/10/23 03:24:08;;;;;;;5.15;4.05;;;;;;;10.54;100.00;97878.05;1811681;79;20919;-58
2022/10/23 03:26:37;;;;;;;4.50;3.42;;;;;;;10.53;100.00;97876.44;1810653;79;21125;-59
2022/10/23 03:29:05;;;;;;;5.03;3.90;;;;;;;10.55;100.00;97875.60;1811937;79;20888;-59
2022/10/23 03:31:34;;;;;;;5.45;4.42;;;;;;;10.58;100.00;97880.38;1811236;78;20840;-58
2022/10/23 03:34:00;;;;;;;5.67;4.75;;;;;;;10.61;100.00;97878.47;1807960;79;21513;-58
2022/10/23 03:36:27;;;;;;;6.75;4.70;;;;;;;10.63;100.00;97883.52;1786535;79;20922;-58
2022/10/23 03:38:55;;;;;;;6.22;5.45;;;;;;;10.63;100.00;97888.34;1809782;78;21083;-58
2022/10/23 03:41:23;;;;;;;7.37;5.45;;;;;;;10.61;100.00;97889.18;1789852;79;21055;-59
2022/10/23 03:43:51;;;;;;;7.00;5.80;;;;;;;10.61;100.00;97893.20;1809844;79;21535;-58
2022/10/23 03:46:17;;;;;;;5.50;4.80;;;;;;;10.61;100.00;97897.22;1811311;78;20919;-59
2022/10/23 03:48:44;;;;;;;5.50;4.87;;;;;;;10.61;100.00;97893.20;1810027;79;20950;-59
2022/10/23 03:51:11;;;;;;;4.83;3.70;;;;;;;10.60;100.00;97897.52;1808782;79;21101;-59
2022/10/23 03:53:39;;;;;;;4.65;3.40;;;;;;;10.61;100.00;97900.44;1810036;78;20906;-58
2022/10/23 03:56:06;;;;;;;3.40;3.02;;;;;;;10.60;100.00;97902.31;1812078;79;20959;-59
2022/10/23 03:58:33;;;;;;;3.30;2.87;;;;;;;10.63;100.00;97909.77;1811084;78;20968;-58
2022/10/23 04:01:00;;;;;;;5.55;3.47;;;;;;;10.64;100.00;97912.71;1813434;78;20967;-59
2022/10/23 04:03:27;;;;;;;4.10;3.17;;;;;;;10.69;100.00;97907.25;1810272;79;21031;-59
2022/10/23 04:05:54;;;;;;;4.72;3.47;;;;;;;10.71;100.00;97908.31;1807736;78;21044;-59
2022/10/23 04:08:22;;;;;;;4.30;3.87;;;;;;;10.70;100.00;97905.37;1812800;79;20942;-58
2022/10/23 04:10:53;;;;;;;4.80;4.30;;;;;;;10.67;100.00;97910.77;1809923;78;20926;-59
2022/10/23 04:13:22;;;;;;;4.92;4.25;;;;;;;10.64;100.00;97903.34;1812081;79;20899;-59
2022/10/23 04:15:50;;;;;;;6.80;4.80;;;;;;;10.64;100.00;97908.70;1810803;78;21111;-59
2022/10/23 04:18:18;;;;;;;6.33;5.40;;;;;;;10.62;100.00;97902.81;1808231;79;20907;-58
2022/10/23 04:20:48;;;;;;;5.28;4.78;;;;;;;10.62;100.00;97904.15;1811252;79;20891;-59
2022/10/23 04:23:15;;;;;;;7.85;5.15;;;;;;;10.63;100.00;97908.43;1809372;79;21399;-58
2022/10/23 04:25:42;;;;;;;5.12;4.30;;;;;;;10.64;100.00;97901.20;1810647;79;21497;-58
2022/10/23 04:28:09;;;;;;;5.72;4.50;;;;;;;10.63;100.00;97904.95;1810659;78;21105;-59
2022/10/23 04:30:38;;;;;;;4.33;3.92;;;;;;;10.63;100.00;97903.07;1811824;78;20990;-59
2022/10/23 04:33:05;;;;;;;4.60;3.87;;;;;;;10.67;100.00;97911.34;1812979;79;21379;-59
2022/10/23 04:35:33;;;;;;;3.87;3.25;;;;;;;10.69;100.00;97911.84;1773748;80;21575;-59
2022/10/23 04:37:59;;;;;;;3.90;3.50;;;;;;;10.67;100.00;97909.43;1768052;79;20924;-59
2022/10/23 04:40:26;;;;;;;3.85;3.47;;;;;;;10.67;100.00;97911.34;1810288;78;21097;-58
2022/10/23 04:42:54;;;;;;;5.12;3.67;;;;;;;10.66;100.00;97911.88;1813587;78;20824;-60
2022/10/23 04:45:21;;;;;;;4.22;3.50;;;;;;;10.67;100.00;97917.47;1810899;78;20880;-59
2022/10/23 04:47:48;;;;;;;3.95;3.50;;;;;;;10.68;100.00;97919.06;1809572;79;20880;-59
2022/10/23 04:50:15;;;;;;;5.17;3.50;;;;;;;10.69;100.00;97923.32;1806674;79;20997;-59
2022/10/23 04:53:01;;;;;;;6.08;4.20;;;;;;;10.67;100.00;97920.14;1810211;78;21270;-59
2022/10/23 04:55:33;;;;;;;4.67;4.08;;;;;;;10.67;100.00;97920.14;1812690;78;20860;-58
2022/10/23 04:58:02;;;;;;;5.45;4.65;;;;;;;10.68;100.00;97921.75;1801305;78;20919;-59
2022/10/23 05:00:29;;;;;;;5.20;4.70;;;;;;;10.69;100.00;97934.60;1810770;78;21504;-59
2022/10/23 05:02:57;;;;;;;8.73;5.53;;;;;;;10.68;100.00;97933.80;1811705;78;21421;-59
2022/10/23 05:05:25;;;;;;;6.03;5.42;;;;;;;10.70;100.00;97932.96;1809412;78;21211;-60
2022/10/23 05:07:57;;;;;;;12.53;6.35;;;;;;;10.72;100.00;97933.46;1755767;79;20982;-59
2022/10/23 05:10:26;;;;;;;11.73;7.17;;;;;;;10.72;100.00;97938.02;1808520;78;20888;-59
2022/10/23 05:12:57;;;;;;;20.10;7.30;;;;;;;10.72;100.00;97944.17;1808738;78;20983;-59
2022/10/23 05:15:24;;;;;;;20.15;7.80;;;;;;;10.72;100.00;97942.84;1811601;78;20907;-60
2022/10/23 05:17:57;;;;;;;10.28;8.00;;;;;;;10.73;100.00;97950.34;1811505;79;20927;-59
2022/10/23 05:20:28;;;;;;;9.08;8.08;;;;;;;10.73;100.00;97948.45;1814221;79;20946;-59
2022/10/23 05:22:55;;;;;;;15.23;8.93;;;;;;;10.71;100.00;97951.98;1811804;79;20844;-58
2022/10/23 05:25:24;;;;;;;12.63;9.10;;;;;;;10.71;100.00;97951.17;1809757;79;21415;-58
2022/10/23 05:27:52;;;;;;;13.83;9.03;;;;;;;10.73;100.00;97945.78;1812044;78;21355;-59
2022/10/23 05:30:19;;;;;;;12.15;9.53;;;;;;;10.72;100.00;97951.41;1810787;78;21211;-59
2022/10/23 05:32:46;;;;;;;10.70;9.28;;;;;;;10.71;100.00;97951.17;1811202;78;21371;-58
2022/10/23 05:35:21;;;;;;;12.85;9.78;;;;;;;10.71;100.00;97957.34;1812484;78;20966;-58
2022/10/23 05:37:49;;;;;;;13.13;10.43;;;;;;;10.75;100.00;97958.87;1810169;78;20896;-59
2022/10/23 05:40:20;;;;;;;12.45;10.35;;;;;;;10.76;100.00;97959.91;1809697;79;21453;-58
2022/10/23 05:42:48;;;;;;;14.80;9.45;;;;;;;10.79;100.00;97965.23;1812256;78;21464;-58
2022/10/23 05:45:17;;;;;;;18.57;9.75;;;;;;;10.81;100.00;97971.89;1811324;78;21046;-58
2022/10/23 05:48:02;;;;;;;13.30;10.60;;;;;;;10.83;100.00;97964.35;1810671;79;20905;-58
2022/10/23 05:50:30;;;;;;;11.78;9.25;;;;;;;10.88;100.00;97970.98;1754834;78;21651;-58
2022/10/23 05:53:16;;;;;;;9.58;8.03;;;;;;;10.87;100.00;97976.09;1812619;78;20944;-58
2022/10/23 05:56:07;;;;;;;10.15;7.67;;;;;;;10.90;100.00;97982.76;1812614;78;21096;-60
2022/10/23 05:58:52;;;;;;;10.23;7.00;;;;;;;10.93;100.00;97977.59;1812433;79;20978;-60
2022/10/23 06:01:21;;;;;;;9.28;7.55;;;;;;;10.96;100.00;97987.74;1809608;79;20879;-59
2022/10/23 06:03:53;;;;;;;8.98;6.85;;;;;;;10.98;100.00;97992.27;1812358;78;21002;-58
2022/10/23 06:06:21;;;;;;;8.88;7.50;;;;;;;11.00;100.00;97988.73;1810598;79;20856;-57
2022/10/23 06:08:49;;;;;;;13.20;8.50;;;;;;;11.00;100.00;97994.64;1811312;79;21864;-59
2022/10/23 06:11:17;;;;;;;11.53;8.35;;;;;;;11.04;100.00;97994.86;1810262;79;20879;-59
2022/10/23 06:13:47;;;;;;;11.80;9.30;;;;;;;11.08;100.00;97999.34;1809995;78;21002;-60
2022/10/23 06:16:19;;;;;;;11.63;9.05;;;;;;;11.10;100.00;98003.06;1811751;78;21914;-60
2022/10/23 06:18:45;;;;;;;12.03;8.93;;;;;;;11.10;100.00;98004.41;1811418;78;20876;-60
2022/10/23 06:21:14;;;;;;;14.50;10.72;;;;;;;11.10;100.00;98001.72;1810747;78;21091;-59
2022/10/23 06:23:47;;;;;;;13.60;10.43;;;;;;;11.11;100.00;98009.48;1810865;79;20896;-59
2022/10/23 06:26:16;;;;;;;12.80;10.65;;;;;;;11.14;100.00;98009.45;1808222;78;21411;-59
2022/10/23 06:28:48;;;;;;;13.28;10.48;;;;;;;11.16;100.00;98012.63;1808460;79;21368;-59
2022/10/23 06:31:18;;;;;;;16.30;10.78;;;;;;;11.18;100.00;98014.47;1811089;78;20998;-60
2022/10/23 06:33:44;;;;;;;13.80;11.10;;;;;;;11.22;100.00;98011.45;1808904;78;21108;-59
2022/10/23 06:36:11;;;;;;;14.03;10.43;;;;;;;11.23;100.00;98021.09;1810769;78;20962;-59
2022/10/23 06:38:40;;;;;;;14.68;10.72;;;;;;;11.24;100.00;98014.63;1811101;78;20915;-57
2022/10/23 06:41:12;;;;;;;12.63;11.03;;;;;;;11.25;100.00;98022.39;1809979;79;20966;-58
2022/10/23 06:43:40;;;;;;;13.55;10.30;;;;;;;11.28;100.00;98018.33;1812509;78;20868;-58
2022/10/23 06:46:19;;;;;;;13.75;10.10;;;;;;;11.31;100.00;98024.42;1811534;79;20942;-58
2022/10/23 06:49:04;;;;;;;15.08;10.45;;;;;;;11.30;100.00;98029.55;1813045;79;20887;-58
2022/10/23 06:51:33;;;;;;;15.50;10.78;;;;;;;11.32;100.00;98026.03;1810640;79;20955;-59
2022/10/23 06:54:01;;;;;;;13.43;10.20;;;;;;;11.34;100.00;98035.91;1812182;79;21072;-58
2022/10/23 06:56:46;;;;;;;13.03;9.93;;;;;;;11.36;100.00;98043.12;1813080;79;21382;-58
2022/10/23 06:59:13;;;;;;;12.55;9.03;;;;;;;11.36;100.00;98033.19;1811120;78;21162;-58
2022/10/23 07:01:40;;;;;;;15.78;9.65;;;;;;;11.41;100.00;98039.81;1788557;79;21595;-59
2022/10/23 07:04:07;;;;;;;13.00;8.85;;;;;;;11.45;100.00;98041.35;1811110;79;20959;-58
2022/10/23 07:06:34;;;;;;;10.18;9.13;;;;;;;11.46;100.00;98036.25;1811512;78;20980;-59
2022/10/23 07:09:01;;;;;;;9.40;8.48;;;;;;;11.48;100.00;98039.43;1811074;78;20978;-58
2022/10/23 07:11:35;;;;;;;12.05;8.85;;;;;;;11.51;100.00;98042.87;1763047;79;21243;-58
2022/10/23 07:14:03;;;;;;;14.73;9.45;;;;;;;11.52;100.00;98039.08;1785176;79;20919;-58
2022/10/23 07:16:31;;;;;;;13.00;8.15;;;;;;;11.53;100.00;98040.15;1811629;78;20944;-59
2022/10/23 07:19:00;;;;;;;8.35;7.45;;;;;;;11.54;100.00;98045.75;1809708;79;21002;-58
2022/10/23 07:21:33;;;;;;;8.03;7.22;;;;;;;11.53;100.00;98046.86;1814097;78;21135;-58
2022/10/23 07:24:08;;;;;;;10.30;7.97;;;;;;;11.55;100.00;98045.20;1777182;78;21120;-58
2022/10/23 07:26:37;;;;;;;9.98;7.08;;;;;;;11.56;100.00;98048.16;1788847;78;21073;-59
2022/10/23 07:29:04;;;;;;;8.25;7.45;;;;;;;11.58;100.00;98047.31;1812037;79;20971;-59
2022/10/23 07:31:34;;;;;;;8.70;7.28;;;;;;;11.62;100.00;98043.74;1811985;78;20985;-59
2022/10/23 07:34:21;;;;;;;8.95;8.05;;;;;;;11.65;100.00;98042.36;1718661;81;20983;-59
2022/10/23 07:36:50;;;;;;;8.35;7.45;;;;;;;11.70;100.00;98049.01;1721735;82;21131;-59
2022/10/23 07:39:18;;;;;;;8.80;7.22;;;;;;;11.71;100.00;98062.66;1724741;81;20903;-59
2022/10/23 07:41:48;;;;;;;10.08;7.75;;;;;;;11.73;100.00;98059.13;1811418;79;21356;-59
2022/10/23 07:44:16;;;;;;;8.65;7.70;;;;;;;11.75;100.00;98055.63;1786581;79;20903;-58
2022/10/23 07:46:44;;;;;;;9.03;7.28;;;;;;;11.80;100.00;98063.56;1809561;79;20970;-59
2022/10/23 07:49:11;;;;;;;10.50;7.03;;;;;;;11.85;100.00;98064.81;1810263;78;21114;-59
2022/10/23 07:51:39;;;;;;;8.00;7.10;;;;;;;11.90;100.00;98071.98;1810927;79;20919;-58
2022/10/23 07:54:10;;;;;;;9.23;7.28;;;;;;;11.96;100.00;98078.32;1810145;79;32740;-58
2022/10/23 07:56:39;;;;;;;8.80;7.75;;;;;;;12.02;100.00;98077.12;1757346;78;20926;-60
2022/10/23 07:59:12;;;;;;;9.03;7.55;;;;;;;12.04;100.00;98081.64;1809432;79;21438;-61
2022/10/23 08:01:41;;;;;;;8.85;7.40;;;;;;;12.07;100.00;98075.69;1810914;79;21051;-59
2022/10/23 08:04:09;;;;;;;8.98;7.10;;;;;;;12.08;100.00;98081.29;1778942;79;21039;-59
2022/10/23 08:06:38;;;;;;;8.25;7.30;;;;;;;12.05;100.00;98080.56;1810264;79;20923;-60
2022/10/23 08:09:06;;;;;;;8.68;6.90;;;;;;;12.05;100.00;98081.91;1813947;78;20939;-58
2022/10/23 08:11:34;;;;;;;8.43;6.62;;;;;;;12.04;100.00;98076.27;1788578;78;21398;-60
2022/10/23 08:14:03;;;;;;;8.73;7.47;;;;;;;12.05;100.00;98083.79;1810690;78;21237;-60
2022/10/23 08:16:33;;;;;;;10.10;7.40;;;;;;;12.10;100.00;98086.38;1810564;79;20911;-60
2022/10/23 08:19:04;;;;;;;11.18;8.23;;;;;;;12.17;100.00;98089.47;1814230;79;20934;-60
2022/10/23 08:21:33;;;;;;;10.00;7.80;;;;;;;12.21;100.00;98089.91;1811415;79;20915;-59
2022/10/23 08:24:01;;;;;;;8.63;7.47;;;;;;;12.22;100.00;98090.15;1811340;79;21512;-60
2022/10/23 08:26:30;;;;;;;12.40;7.90;;;;;;;12.23;100.00;98094.44;1812400;79;20997;-59
2022/10/23 08:29:00;;;;;;;9.50;8.45;;;;;;;12.27;100.00;98103.48;1810816;78;20879;-60
2022/10/23 08:31:28;;;;;;;8.93;7.60;;;;;;;12.27;100.00;98103.48;1811020;78;21162;-60
2022/10/23 08:34:14;;;;;;;9.65;7.25;;;;;;;12.27;100.00;98105.40;1810785;79;20907;-60
2022/10/23 08:36:42;;;;;;;9.60;7.80;;;;;;;12.28;100.00;98119.86;1811979;78;20931;-59
2022/10/23 08:39:09;;;;;;;9.43;8.30;;;;;;;12.30;100.00;98112.30;1810518;78;21955;-60
2022/10/23 08:41:48;;;;;;;10.68;8.55;;;;;;;12.30;100.00;98120.35;1808906;78;20895;-59
2022/10/23 08:44:36;;;;;;;10.55;7.65;;;;;;;12.29;100.00;98124.12;1811408;79;21421;-60
2022/10/23 08:47:14;;;;;;;11.95;7.62;;;;;;;12.33;100.00;98125.14;1806331;79;21478;-59
2022/10/23 08:50:00;;;;;;;11.12;8.25;;;;;;;12.33;100.00;98127.82;1719258;82;21498;-60
2022/10/23 08:52:44;;;;;;;10.20;7.60;;;;;;;12.33;100.00;98132.39;1811153;79;21212;-60
2022/10/23 08:55:34;;;;;;;11.65;7.87;;;;;;;12.35;100.00;98130.20;1810038;78;20970;-59
2022/10/23 08:58:07;;;;;;;11.35;8.60;;;;;;;12.42;100.00;98137.86;1813048;78;21022;-57
2022/10/23 09:00:34;;;;;;;11.85;8.83;;;;;;;12.47;100.00;98144.48;1807816;79;20876;-59
2022/10/23 09:03:03;;;;;;;12.68;8.80;;;;;;;12.50;100.00;98143.89;1812353;78;20994;-60
2022/10/23 09:06:00;;;;;;;10.28;8.38;;;;;;;12.57;100.00;98145.63;1811355;78;21407;-59
2022/10/23 09:08:48;;;;;;;12.45;9.18;;;;;;;12.61;100.00;98153.33;1811925;78;20887;-58
2022/10/23 09:11:21;;;;;;;10.53;8.38;;;;;;;12.67;100.00;98153.50;1809762;79;20903;-58
2022/10/23 09:14:04;;;;;;;10.68;8.50;;;;;;;12.72;100.00;98157.41;1810646;79;21053;-58
2022/10/23 09:17:01;;;;;;;11.60;8.75;;;;;;;12.73;100.00;98151.75;1750293;78;21003;-59
2022/10/23 09:19:30;;;;;;;10.75;9.03;;;;;;;12.73;100.00;98146.91;1809032;78;21220;-59
2022/10/23 09:21:57;;;;;;;10.18;8.55;;;;;;;12.72;100.00;98163.58;1811053;79;20900;-59
2022/10/23 09:24:25;;;;;;;13.03;8.75;;;;;;;12.70;100.00;98159.59;1812266;79;20907;-59
2022/10/23 09:26:52;;;;;;;12.03;9.13;;;;;;;12.70;100.00;98159.59;1811083;79;20919;-59
2022/10/23 09:29:34;;;;;;;11.50;9.38;;;;;;;12.72;100.00;98168.16;1812217;79;20914;-59
2022/10/23 09:32:05;;;;;;;10.82;8.65;;;;;;;12.73;100.00;98168.41;1811145;79;21105;-59
2022/10/23 09:34:33;;;;;;;11.45;9.78;;;;;;;12.74;100.00;98176.73;1810757;79;20984;-59
2022/10/23 09:37:26;;;;;;;13.05;10.00;;;;;;;12.73;100.00;98172.44;1812380;78;20978;-59
2022/10/23 09:40:18;;;;;;;12.20;9.45;;;;;;;12.69;100.00;98176.30;1809480;78;20939;-58
2022/10/23 09:42:57;;;;;;;10.18;8.33;;;;;;;12.62;100.00;98173.75;1812297;79;21009;-58
2022/10/23 09:45:33;;;;;;;12.93;10.15;;;;;;;12.61;100.00;98176.17;1812212;78;21235;-58
2022/10/23 09:48:18;;;;;;;13.78;9.70;;;;;;;12.61;100.00;98182.89;1810539;78;20922;-59
2022/10/23 09:50:54;;;;;;;11.70;9.23;;;;;;;12.58;100.00;98176.22;1811973;78;20867;-59
2022/10/23 09:53:38;;;;;;;11.08;9.33;;;;;;;12.57;100.00;98179.22;1811558;78;20967;-59
2022/10/23 09:56:27;;;;;;;13.90;10.85;;;;;;;12.58;100.00;98179.45;1809742;78;20864;-58
2022/10/23 09:59:00;;;;;;;14.28;10.95;;;;;;;12.55;100.00;98184.09;1808566;79;21156;-59
2022/10/23 10:01:34;;;;;;;12.40;11.10;;;;;;;12.55;100.00;98184.09;1813556;78;20910;-59
2022/10/23 10:04:39;;;;;;;14.33;10.48;;;;;;;12.57;100.00;98187.28;1809242;79;20821;-59
2022/10/23 10:10:05;;;;;;;14.87;11.08;;;;;;;12.61;100.00;98194.44;1811632;78;20872;-60
2022/10/23 10:12:57;;;;;;;14.73;9.70;;;;;;;12.64;100.00;98191.71;1810519;78;21193;-58
2022/10/23 10:15:34;;;;;;;10.18;9.08;;;;;;;12.68;100.00;98187.32;1810917;78;20899;-59
2022/10/23 10:18:29;;;;;;;14.80;9.98;;;;;;;12.79;100.00;98191.39;1810908;79;21394;-59
2022/10/23 10:21:20;;;;;;;11.45;9.73;;;;;;;12.90;100.00;98180.70;1809447;79;20907;-59
2022/10/23 10:24:13;;;;;;;13.53;10.45;;;;;;;13.05;100.00;98185.75;1811059;78;20840;-57
2022/10/23 10:27:09;;;;;;;10.95;9.30;;;;;;;13.20;100.00;98186.81;1775847;80;22130;-57
2022/10/23 10:29:45;;;;;;;10.72;9.63;;;;;;;13.34;100.00;98186.23;1810322;79;21509;-61
2022/10/23 10:32:32;;;;;;;9.80;8.90;;;;;;;13.48;100.00;98187.53;1810834;79;20961;-58
2022/10/23 10:35:19;;;;;;;10.95;9.85;;;;;;;13.63;100.00;98181.27;1809952;78;20859;-59
2022/10/23 10:38:27;;;;;;;13.43;10.32;;;;;;;13.80;100.00;98173.88;1810939;79;20875;-59
2022/10/23 10:41:24;;;;;;;11.48;10.28;;;;;;;13.95;99.62;98180.21;1812164;79;26668;-60
2022/10/23 10:44:14;;;;;;;12.95;10.75;;;;;;;14.02;97.69;98176.53;1810172;78;20950;-60
2022/10/23 10:46:58;;;;;;;12.82;10.72;;;;;;;14.12;97.29;98184.91;1810629;78;20887;-59
2022/10/23 10:49:35;;;;;;;15.38;10.85;;;;;;;14.17;94.52;98182.09;1809522;78;20903;-58
2022/10/23 10:52:23;;;;;;;10.95;9.78;;;;;;;14.19;94.12;98185.27;1809539;78;22083;-60
2022/10/23 10:55:24;;;;;;;12.60;11.28;;;;;;;14.21;93.77;98179.81;1810855;78;20915;-57
2022/10/23 10:58:01;;;;;;;12.28;11.05;;;;;;;14.29;94.25;98179.08;1812240;78;20884;-58
2022/10/23 11:00:29;;;;;;;11.40;10.10;;;;;;;14.43;93.78;98176.86;1773536;79;20860;-59
2022/10/23 11:03:20;;;;;;;15.88;11.48;;;;;;;14.44;91.26;98179.23;1809217;79;20915;-60
2022/10/23 11:05:50;;;;;;;13.03;10.88;;;;;;;14.41;91.08;98185.27;1809416;78;20876;-58
2022/10/23 11:08:34;;;;;;;14.13;10.82;;;;;;;14.40;91.99;98179.63;1810008;78;20911;-59
2022/10/23 11:11:16;;;;;;;12.10;10.48;;;;;;;14.44;92.21;98173.84;1811531;78;20916;-59
2022/10/23 11:13:44;;;;;;;14.43;11.85;;;;;;;14.48;92.12;98175.38;1812056;79;21416;-58
2022/10/23 11:16:19;;;;;;;23.02;10.90;;;;;;;14.39;91.47;98173.98;1813021;79;20911;-60
2022/10/23 11:19:07;;;;;;;12.03;10.93;;;;;;;14.29;91.51;98176.93;1823026;77;20895;-59
2022/10/23 11:21:47;;;;;;;12.43;10.50;;;;;;;14.27;92.10;98175.88;1797158;78;21420;-59
2022/10/23 11:24:39;;;;;;;12.65;10.00;;;;;;;14.21;92.13;98178.47;1822387;77;20946;-59
2022/10/23 11:27:26;;;;;;;11.78;10.18;;;;;;;14.14;92.32;98180.01;1841008;77;20953;-59
2022/10/23 11:30:31;;;;;;;13.88;9.80;;;;;;;14.11;92.18;98180.61;1829193;77;20923;-59
2022/10/23 11:33:28;;;;;;;10.55;9.20;;;;;;;14.12;92.70;98174.14;1835524;77;20884;-58
2022/10/23 11:36:19;;;;;;;14.33;9.13;;;;;;;14.23;92.60;98174.11;1796794;77;22076;-59
2022/10/23 11:38:49;;;;;;;10.23;8.88;;;;;;;14.38;92.27;98168.36;1823572;77;20903;-58
2022/10/23 11:41:22;;;;;;;12.88;9.88;;;;;;;14.45;90.70;98174.10;1807211;77;20884;-58
2022/10/23 11:44:00;;;;;;;10.80;8.85;;;;;;;14.46;90.17;98186.45;1824532;77;21086;-58
2022/10/23 11:46:33;;;;;;;10.15;8.23;;;;;;;14.43;89.66;98176.31;1834935;77;20900;-58
2022/10/23 11:49:02;;;;;;;10.55;8.83;;;;;;;14.35;87.89;98173.81;1822964;77;21076;-59
2022/10/23 11:51:38;;;;;;;12.73;9.00;;;;;;;14.26;88.44;98172.16;1842191;77;20845;-59
2022/10/23 11:54:23;;;;;;;9.03;8.13;;;;;;;14.23;89.18;98176.80;1842446;77;20975;-59